Bischofshofen, Autriche

15:21 CEST le 23 mai 2015 (GMT +0200)
Muehlach am Hochkoenig | | Change Station
CLOSE
Current Station
Stations météorologiques personnelles
Location: Mühlbach Am Hochkönig, SALZBURG
Altitude: 2785 ft
Stations météo à proximité
Avis météorologiques actifs: Rain english:

Alt. 2785 ft 47.38 °N, 13.13 °E | Updated 9 seconds ago

Rain
Pluie
44.2 ° F
Paraît 44 ° F
N
0.0
Vent Variable Vent de Sud
Gusts 0.0 mph

Aujourd'hui
Haut(e) -- | Bas -- ° F
--% Risque de précip.
Hier
Haut(e) -- | Bas -- ° F
Precip. -- pouce
5:22 AM 8:46 PM
Lune montante, 30% visible
Pression 30.04 pouce
Visibilité 6.2 Miles terrestres
Nuages Peu 300 ft
Nuages épars 1200 ft
Couvert 3500 ft
Refroidissement éolien 44 ° F
Point de rosée 41 ° F
Humidité 89%
Précipitations 0.50 pouce
Profondeur de la couche neigeuse Non disponible.
UV 1.0 sur 12
Pollen Non disponible.
Qualité de l'air Non disponible.
Flu Activity Non disponible.
METAR LOWZ 231300Z 26007KT 10KM RA FEW003ST SCT012ST OVC035SC 08/07 Q1017 RMK OVC

More Conditions Fewer Conditions

Pression 30.04 pouce
Visibilité 6.2 Miles terrestres
Nuages Peu 300 ft
Nuages épars 1200 ft
Couvert 3500 ft
Refroidissement éolien 44 ° F
Point de rosée 41 ° F
Humidité 89%
Précipitations 0.50 pouce
Profondeur de la couche neigeuse Non disponible.
UV 1.0 sur 12
Pollen Non disponible.
Qualité de l'air Non disponible.
Flu Activity Non disponible.
METAR LOWZ 231300Z 26007KT 10KM RA FEW003ST SCT012ST OVC035SC 08/07 Q1017 RMK OVC

More Conditions Fewer Conditions

10-Day Weather Forecast

Almanac

Astronomie

May. 23, 2015 Lever Coucher
Temps réel
Crépuscule civil
Crépuscule nautique
Crépuscule astronomique
Lune
Durée de lumière visible
Longueur du jour
Tomorrow will be .
, % of the Moon is Illuminated

Extrêmes aujourd'hui

Country Highs Country Lows

Community

WunderPhotos

Upload Photos

1,823,458 Photos téléchargées !

WunderBlogs® & News

Nearby

Qualité de l'air

  Qualité de l'air Indice de la qualité de l'air Polluant
Not available.

Épaisseur de neige

Station Depth Altitude

Activité sismique

Ville Distance Mag. Time & Date
Minimum magnitude displayed is 2.5.

Températures des eaux côtières

Lieu Température

Stations

Stations météo à proximité

Emplacement de la station Température Refroidissement éolien Point de rosée Humidité Vent Precip. Alt. Mise à jour Type